Time;durP1;ratioP1;P1;durP2;ratioP2;P2;SDS_P1;SDS_P2;PMS_P1;PMS_P2;Temp;Humidity;BMP_temperature;BMP_pressure;BME280_temperature;BME280_humidity;BME280_pressure;Samples;Min_cycle;Max_cycle;Signal;HPM_P1;HPM_P2
2022/12/11 00:02:03;;;;;;;49.80;20.97;;;1.30;80.60;;;;;;5118784;27;20045;-68
2022/12/11 00:04:29;;;;;;;57.97;23.33;;;1.40;80.70;;;;;;5101036;27;20039;-68
2022/12/11 00:06:55;;;;;;;46.07;18.87;;;1.30;80.80;;;;;;5125443;27;20039;-68
2022/12/11 00:09:21;;;;;;;50.23;20.97;;;1.40;80.90;;;;;;5130506;27;20390;-69
2022/12/11 00:11:47;;;;;;;51.27;19.93;;;1.40;81.00;;;;;;5112669;27;20183;-69
2022/12/11 00:14:14;;;;;;;56.60;22.50;;;1.40;81.10;;;;;;5126637;27;20043;-69
2022/12/11 00:16:40;;;;;;;50.80;20.77;;;1.40;81.20;;;;;;5108539;27;20039;-69
2022/12/11 00:19:06;;;;;;;44.93;18.50;;;1.50;81.20;;;;;;5131736;27;20041;-69
2022/12/11 00:21:32;;;;;;;47.30;18.60;;;1.50;81.20;;;;;;5098753;27;20110;-73
2022/12/11 00:23:58;;;;;;;50.87;21.90;;;1.50;81.30;;;;;;5098709;27;20037;-73
2022/12/11 00:26:24;;;;;;;46.50;19.13;;;1.60;81.30;;;;;;5128075;27;20027;-74
2022/12/11 00:28:53;;;;;;;47.70;20.40;;;1.60;81.30;;;;;;5116514;27;20423;-74
2022/12/11 00:31:20;;;;;;;44.30;18.20;;;1.60;81.40;;;;;;5106359;27;20063;-73
2022/12/11 00:33:50;;;;;;;49.17;20.97;;;1.60;81.30;;;;;;5124390;27;20039;-74
2022/12/11 00:36:26;;;;;;;43.63;18.87;;;1.70;81.40;;;;;;5116277;27;20110;-73
2022/12/11 00:38:52;;;;;;;39.50;17.37;;;1.70;81.40;;;;;;5107522;27;20043;-73
2022/12/11 00:41:19;;;;;;;44.33;18.90;;;2.20;81.60;;;;;;5113273;27;20027;-73
2022/12/11 00:43:45;;;;;;;49.80;20.00;;;1.70;81.30;;;;;;5119419;27;20486;-73
2022/12/11 00:46:11;;;;;;;42.37;18.97;;;1.70;81.20;;;;;;5132391;27;20091;-73
2022/12/11 00:48:37;;;;;;;43.20;18.93;;;1.80;81.30;;;;;;5132188;27;20038;-74
2022/12/11 00:51:03;;;;;;;42.83;18.33;;;1.80;81.30;;;;;;5123534;27;20049;-73
2022/12/11 00:53:29;;;;;;;39.23;17.90;;;1.80;81.30;;;;;;5123575;27;20039;-71
2022/12/11 00:55:55;;;;;;;43.63;17.37;;;1.90;81.40;;;;;;5130518;27;20035;-73
2022/12/11 00:58:21;;;;;;;39.23;17.00;;;1.90;81.40;;;;;;5130376;27;20371;-73
2022/12/11 01:00:48;;;;;;;39.63;17.37;;;1.90;81.40;;;;;;5132213;27;20039;-73
2022/12/11 01:03:16;;;;;;;37.57;16.40;;;2.10;81.40;;;;;;5123720;27;20065;-73
2022/12/11 01:05:53;;;;;;;38.07;16.83;;;2.00;81.30;;;;;;5090081;27;20088;-73
2022/12/11 01:08:19;;;;;;;42.60;17.47;;;2.00;81.30;;;;;;5132565;27;20075;-73
2022/12/11 01:10:45;;;;;;;41.57;16.93;;;2.00;81.30;;;;;;5124392;27;20486;-69
2022/12/11 01:13:11;;;;;;;39.63;17.13;;;2.10;81.20;;;;;;5114907;27;20038;-69
2022/12/11 01:15:43;;;;;;;35.40;15.20;;;2.10;81.10;;;;;;5115172;28;20066;-69
2022/12/11 01:18:10;;;;;;;38.67;16.80;;;2.10;81.00;;;;;;5115448;28;20027;-68
2022/12/11 01:20:38;;;;;;;39.28;17.00;;;2.10;80.90;;;;;;5128067;28;20035;-69
2022/12/11 01:23:04;;;;;;;43.07;19.13;;;2.20;80.80;;;;;;5124592;28;20095;-69
2022/12/11 01:25:32;;;;;;;36.75;17.05;;;2.20;80.70;;;;;;5114778;28;20035;-68
2022/12/11 01:27:57;;;;;;;37.53;16.70;;;2.10;80.60;;;;;;5114944;28;20046;-68
2022/12/11 01:30:26;;;;;;;41.43;15.83;;;2.20;80.60;;;;;;5098610;28;20583;-73
2022/12/11 01:32:52;;;;;;;43.72;18.73;;;2.20;80.50;;;;;;5086586;28;20160;-69
2022/12/11 01:35:18;;;;;;;40.78;17.77;;;2.20;80.40;;;;;;5114842;28;20046;-69
2022/12/11 01:37:44;;;;;;;40.40;17.95;;;2.20;80.30;;;;;;5111148;28;20035;-68
2022/12/11 01:40:13;;;;;;;44.13;19.05;;;2.20;80.20;;;;;;5098514;28;20050;-69
2022/12/11 01:42:39;;;;;;;43.85;17.88;;;2.20;80.10;;;;;;5099943;28;20045;-69
2022/12/11 01:45:37;;;;;;;38.00;16.92;;;2.20;80.00;;;;;;5119838;28;20039;-69
2022/12/11 01:48:05;;;;;;;37.85;17.50;;;2.20;80.00;;;;;;5127949;28;20043;-69
2022/12/11 01:50:37;;;;;;;43.80;18.70;;;2.20;80.00;;;;;;5110394;27;20050;-69
2022/12/11 01:53:07;;;;;;;44.00;17.85;;;2.20;80.10;;;;;;5134136;27;20039;-69
2022/12/11 01:55:33;;;;;;;42.53;17.98;;;2.20;80.10;;;;;;5121836;27;20046;-69
2022/12/11 01:58:01;;;;;;;44.05;18.48;;;2.30;80.10;;;;;;5135659;27;20118;-69
2022/12/11 02:00:26;;;;;;;47.70;19.03;;;2.20;80.00;;;;;;5118580;27;20039;-68
2022/12/11 02:02:52;;;;;;;43.10;18.10;;;2.20;80.00;;;;;;5109689;27;20053;-69
2022/12/11 02:05:18;;;;;;;44.13;19.87;;;2.20;80.00;;;;;;5122986;27;20039;-69
2022/12/11 02:07:58;;;;;;;40.17;17.48;;;2.20;80.00;;;;;;5104448;27;20035;-69
2022/12/11 02:10:40;;;;;;;52.97;20.58;;;2.20;80.10;;;;;;5135289;27;20039;-69
2022/12/11 02:13:20;;;;;;;42.78;18.85;;;2.20;80.10;;;;;;5116229;27;20363;-69
2022/12/11 02:16:02;;;;;;;48.33;20.33;;;2.20;80.10;;;;;;5092303;28;20048;-69
2022/12/11 02:18:41;;;;;;;46.95;19.35;;;2.20;80.10;;;;;;5077718;28;20434;-69
2022/12/11 02:21:22;;;;;;;52.50;20.73;;;2.20;80.20;;;;;;5089635;28;20116;-69
2022/12/11 02:23:48;;;;;;;50.67;19.90;;;2.20;80.10;;;;;;5084258;28;20086;-69
2022/12/11 02:26:13;;;;;;;48.63;20.20;;;2.20;80.00;;;;;;5093863;28;20403;-69
2022/12/11 02:28:54;;;;;;;51.17;21.15;;;2.20;79.90;;;;;;5083390;28;20043;-69
2022/12/11 02:31:34;;;;;;;47.13;20.38;;;2.20;79.90;;;;;;5074323;28;20049;-69
2022/12/11 02:34:07;;;;;;;51.80;21.97;;;2.20;79.90;;;;;;5091439;28;20065;-68
2022/12/11 02:36:36;;;;;;;48.67;19.83;;;2.20;79.90;;;;;;5063717;28;20029;-68
2022/12/11 02:39:04;;;;;;;50.30;20.05;;;2.20;80.00;;;;;;5057852;28;20403;-69
2022/12/11 02:41:32;;;;;;;52.58;21.02;;;2.20;80.00;;;;;;5061530;28;20039;-69
2022/12/11 02:44:00;;;;;;;46.90;20.00;;;2.20;80.10;;;;;;5060697;28;20122;-68
2022/12/11 02:46:27;;;;;;;49.27;20.77;;;2.20;80.10;;;;;;5080810;28;20051;-69
2022/12/11 02:48:54;;;;;;;57.75;23.10;;;2.20;80.10;;;;;;5075332;28;20040;-68
2022/12/11 02:51:25;;;;;;;49.90;20.05;;;2.20;80.10;;;;;;5066222;28;20055;-69
2022/12/11 02:53:56;;;;;;;43.13;18.80;;;2.20;80.10;;;;;;5092762;28;20036;-69
2022/12/11 02:56:43;;;;;;;55.13;21.27;;;2.20;80.10;;;;;;5069693;28;20063;-69
2022/12/11 02:59:16;;;;;;;57.43;23.40;;;2.20;80.20;;;;;;5075376;28;20041;-68
2022/12/11 03:01:42;;;;;;;61.10;24.00;;;2.20;80.20;;;;;;5079482;28;20071;-68
2022/12/11 03:04:08;;;;;;;61.13;24.47;;;2.20;80.00;;;;;;5092596;28;20035;-68
2022/12/11 03:06:45;;;;;;;52.33;20.87;;;2.20;80.00;;;;;;5083781;28;20079;-68
2022/12/11 03:09:12;;;;;;;53.42;20.52;;;2.20;80.00;;;;;;5079532;28;20062;-68
2022/12/11 03:11:38;;;;;;;61.57;23.40;;;2.20;80.00;;;;;;5041902;28;20111;-69
2022/12/11 03:14:04;;;;;;;46.22;20.45;;;2.20;80.10;;;;;;5085304;28;20132;-69
2022/12/11 03:16:40;;;;;;;52.22;21.25;;;2.20;80.10;;;;;;5113888;28;20070;-68
2022/12/11 03:19:29;;;;;;;60.43;22.23;;;2.30;80.20;;;;;;5113428;28;20023;-68
2022/12/11 03:22:08;;;;;;;58.33;23.08;;;2.30;80.20;;;;;;5113411;28;20036;-69
2022/12/11 03:24:46;;;;;;;57.40;23.20;;;2.20;80.10;;;;;;5113536;28;20031;-69
2022/12/11 03:27:26;;;;;;;54.77;22.70;;;2.30;80.20;;;;;;5113925;28;20097;-69
2022/12/11 03:30:04;;;;;;;56.23;23.03;;;2.30;80.20;;;;;;5113359;28;20505;-68
2022/12/11 03:32:37;;;;;;;55.50;24.60;;;2.20;80.10;;;;;;5129999;27;20097;-68
2022/12/11 03:35:17;;;;;;;51.47;21.43;;;2.30;80.10;;;;;;5113168;28;20071;-69
2022/12/11 03:37:46;;;;;;;46.13;20.23;;;2.20;80.00;;;;;;5113274;28;20466;-69
2022/12/11 03:40:16;;;;;;;56.10;22.77;;;2.30;80.10;;;;;;5113216;28;20118;-69
2022/12/11 03:42:45;;;;;;;63.87;25.80;;;2.30;80.10;;;;;;5112766;28;20051;-69
2022/12/11 03:45:13;;;;;;;57.17;22.60;;;2.30;80.00;;;;;;5112974;28;20043;-69
2022/12/11 03:47:41;;;;;;;56.30;21.25;;;2.20;79.90;;;;;;5113332;28;20118;-68
2022/12/11 03:50:10;;;;;;;57.33;22.52;;;2.20;80.00;;;;;;5113272;28;20115;-68
2022/12/11 03:52:38;;;;;;;54.00;23.08;;;2.30;80.10;;;;;;5113008;28;20092;-69
2022/12/11 03:55:05;;;;;;;49.10;20.52;;;2.20;80.00;;;;;;5112608;28;20482;-68
2022/12/11 03:57:35;;;;;;;49.25;21.88;;;2.20;80.00;;;;;;5113008;28;20521;-69
2022/12/11 04:00:03;;;;;;;55.10;22.07;;;2.20;80.00;;;;;;5113047;28;20035;-68
2022/12/11 04:02:30;;;;;;;53.10;21.98;;;2.20;80.10;;;;;;5095777;28;20035;-69
2022/12/11 04:04:55;;;;;;;49.80;21.57;;;2.20;80.10;;;;;;5112211;28;20491;-68
2022/12/11 04:07:21;;;;;;;50.30;19.70;;;2.20;80.20;;;;;;5096002;28;20035;-69
2022/12/11 04:09:47;;;;;;;46.20;19.33;;;2.20;80.20;;;;;;5104086;28;20122;-70
2022/12/11 04:12:12;;;;;;;47.00;20.08;;;2.30;80.40;;;;;;5112011;28;20169;-68
2022/12/11 04:25:34;;;;;;;45.20;18.80;;;2.30;80.20;;;;;;5113346;28;20090;-73
2022/12/11 04:28:00;;;;;;;43.30;18.40;;;2.20;80.10;;;;;;5080168;28;20039;-73
2022/12/11 04:30:26;;;;;;;52.53;19.13;;;2.20;80.10;;;;;;5113699;28;20039;-73
2022/12/11 04:32:53;;;;;;;38.77;18.30;;;2.30;80.20;;;;;;5112527;28;20593;-74
2022/12/11 04:35:20;;;;;;;48.47;19.17;;;2.20;80.20;;;;;;5112904;28;20104;-74
2022/12/11 04:37:46;;;;;;;44.78;18.63;;;2.30;80.30;;;;;;5112661;28;20047;-73
2022/12/11 04:40:15;;;;;;;52.60;20.33;;;2.30;80.30;;;;;;5112641;28;20032;-73
2022/12/11 04:42:41;;;;;;;54.75;19.63;;;2.30;80.40;;;;;;5112435;28;20040;-73
2022/12/11 04:45:08;;;;;;;47.15;19.40;;;2.30;80.30;;;;;;5111600;28;20071;-69
2022/12/11 04:47:35;;;;;;;47.92;19.38;;;2.30;80.30;;;;;;5112410;28;20047;-69
2022/12/11 04:50:01;;;;;;;51.42;20.88;;;2.30;80.20;;;;;;5112327;28;20032;-68
2022/12/11 04:52:26;;;;;;;47.03;20.17;;;2.30;80.20;;;;;;5094858;28;20046;-69
2022/12/11 04:54:52;;;;;;;48.83;21.10;;;2.30;80.10;;;;;;5111879;28;20047;-68
2022/12/11 04:57:20;;;;;;;48.47;19.93;;;2.30;80.10;;;;;;5111891;28;20620;-68
2022/12/11 04:59:46;;;;;;;46.60;19.63;;;2.30;80.10;;;;;;5111983;28;20443;-69
2022/12/11 05:02:12;;;;;;;49.35;19.23;;;2.30;80.10;;;;;;5111787;28;20043;-69
2022/12/11 05:04:38;;;;;;;48.28;20.13;;;2.20;80.10;;;;;;5111346;28;20047;-68
2022/12/11 05:07:03;;;;;;;46.17;20.17;;;2.30;80.10;;;;;;5111744;28;20040;-69
2022/12/11 05:09:29;;;;;;;53.92;21.65;;;2.30;80.20;;;;;;5111351;28;20402;-68
2022/12/11 05:11:54;;;;;;;48.78;20.63;;;2.20;80.10;;;;;;5074732;28;20036;-68
2022/12/11 05:14:20;;;;;;;49.30;20.50;;;2.20;80.10;;;;;;5090326;28;20058;-68
2022/12/11 05:16:46;;;;;;;55.60;20.13;;;2.30;80.10;;;;;;5094543;28;20067;-68
2022/12/11 05:19:12;;;;;;;50.67;19.73;;;2.20;80.10;;;;;;5111635;28;20032;-68
2022/12/11 05:21:38;;;;;;;49.60;20.05;;;2.20;80.20;;;;;;5111824;28;20055;-68
2022/12/11 05:24:04;;;;;;;47.58;20.05;;;2.20;80.30;;;;;;5110919;28;20494;-68
2022/12/11 05:26:29;;;;;;;52.00;20.70;;;2.20;80.30;;;;;;5111490;28;20039;-68
2022/12/11 05:28:55;;;;;;;54.03;21.87;;;2.20;80.30;;;;;;5111542;28;20050;-68
2022/12/11 05:31:26;;;;;;;57.63;22.23;;;2.10;80.20;;;;;;5111021;28;20154;-68
2022/12/11 05:33:53;;;;;;;57.93;21.47;;;2.10;80.20;;;;;;5110909;28;20031;-68
2022/12/11 05:36:20;;;;;;;53.27;20.73;;;2.10;80.20;;;;;;5094900;28;20493;-68
2022/12/11 05:38:46;;;;;;;52.92;21.25;;;2.00;80.20;;;;;;5094897;28;20510;-68
2022/12/11 05:41:14;;;;;;;55.63;21.00;;;2.00;80.40;;;;;;5111675;28;20040;-68
2022/12/11 05:43:41;;;;;;;56.45;23.88;;;2.00;80.50;;;;;;5111076;28;20048;-68
2022/12/11 05:46:27;;;;;;;60.65;22.67;;;2.00;80.50;;;;;;5094235;28;20049;-68
2022/12/11 05:48:56;;;;;;;52.20;22.43;;;2.00;80.60;;;;;;5107278;28;20051;-69
2022/12/11 05:51:22;;;;;;;56.63;21.08;;;1.90;80.50;;;;;;5094266;28;20039;-68
2022/12/11 05:53:49;;;;;;;54.80;20.40;;;1.90;80.50;;;;;;5110886;28;20043;-68
2022/12/11 05:56:18;;;;;;;55.33;22.27;;;1.90;80.60;;;;;;5111266;28;20040;-68
2022/12/11 05:58:45;;;;;;;58.73;23.63;;;1.90;80.80;;;;;;5111722;28;20038;-68
2022/12/11 06:01:21;;;;;;;61.23;21.70;;;1.80;80.80;;;;;;5094170;28;20496;-68
2022/12/11 06:03:47;;;;;;;63.57;21.83;;;1.80;80.90;;;;;;5086565;28;20043;-68
2022/12/11 06:06:14;;;;;;;62.03;23.63;;;1.80;80.90;;;;;;5111299;28;20086;-68
2022/12/11 06:08:40;;;;;;;59.57;21.43;;;1.80;81.10;;;;;;5094331;28;20440;-68
2022/12/11 06:11:07;;;;;;;61.30;24.40;;;1.80;81.20;;;;;;5111123;28;20081;-68
2022/12/11 06:13:34;;;;;;;60.20;22.90;;;1.80;81.30;;;;;;5096364;28;20503;-68
2022/12/11 06:16:04;;;;;;;60.90;22.50;;;1.80;81.40;;;;;;5116118;28;20046;-69
2022/12/11 06:18:30;;;;;;;57.87;21.83;;;1.80;81.40;;;;;;5122059;28;20027;-68
2022/12/11 06:20:56;;;;;;;58.07;21.63;;;1.80;81.40;;;;;;5104744;28;20043;-68
2022/12/11 06:23:22;;;;;;;60.97;23.40;;;1.80;81.40;;;;;;5129185;28;20379;-68
2022/12/11 06:25:48;;;;;;;54.93;20.73;;;1.80;81.50;;;;;;5114867;28;20086;-69
2022/12/11 06:28:13;;;;;;;49.73;21.30;;;1.70;81.50;;;;;;5114851;28;20447;-68
2022/12/11 06:30:39;;;;;;;64.63;22.60;;;1.70;81.50;;;;;;5122750;28;20379;-66
2022/12/11 06:33:05;;;;;;;60.83;23.57;;;1.70;81.70;;;;;;5114107;28;20039;-66
2022/12/11 06:35:31;;;;;;;64.70;23.80;;;1.70;81.70;;;;;;5107983;27;20073;-66
2022/12/11 06:37:57;;;;;;;63.47;24.47;;;1.70;81.60;;;;;;5113889;27;20055;-66
2022/12/11 06:40:23;;;;;;;63.27;23.27;;;1.70;81.60;;;;;;5125814;27;20039;-66
2022/12/11 06:42:48;;;;;;;62.73;21.20;;;1.70;81.70;;;;;;5118048;27;20043;-66
2022/12/11 06:45:14;;;;;;;61.50;20.87;;;1.70;81.70;;;;;;5125197;27;20039;-66
2022/12/11 06:47:40;;;;;;;55.87;20.40;;;1.70;81.80;;;;;;5101110;27;20066;-67
2022/12/11 06:50:06;;;;;;;56.03;22.37;;;1.70;82.00;;;;;;5131709;27;20055;-66
2022/12/11 06:52:31;;;;;;;54.27;21.03;;;1.70;82.00;;;;;;5109560;27;20031;-66
2022/12/11 06:54:57;;;;;;;58.67;22.47;;;1.70;82.10;;;;;;5101458;27;20043;-66
2022/12/11 06:57:23;;;;;;;55.50;23.60;;;1.70;82.10;;;;;;5117732;27;20513;-66
2022/12/11 06:59:49;;;;;;;59.67;22.40;;;1.70;82.10;;;;;;5132248;27;20439;-66
2022/12/11 07:02:16;;;;;;;64.03;23.30;;;1.70;82.20;;;;;;5100559;27;20126;-67
2022/12/11 07:04:42;;;;;;;63.23;23.87;;;1.70;82.20;;;;;;5117785;27;20035;-66
2022/12/11 07:07:09;;;;;;;56.73;21.40;;;1.80;82.20;;;;;;5101898;27;20100;-66
2022/12/11 07:09:37;;;;;;;55.27;21.67;;;1.80;82.20;;;;;;5110075;27;20173;-66
2022/12/11 07:12:03;;;;;;;58.37;21.60;;;1.70;82.20;;;;;;5114973;27;20092;-66
2022/12/11 07:14:29;;;;;;;64.53;22.60;;;1.70;82.20;;;;;;5120605;27;20437;-66
2022/12/11 07:16:56;;;;;;;55.67;20.17;;;1.80;82.30;;;;;;5113354;28;20483;-66
2022/12/11 07:19:22;;;;;;;57.33;22.00;;;1.70;82.70;;;;;;5096882;28;20418;-66
2022/12/11 07:21:47;;;;;;;56.57;22.37;;;1.80;82.40;;;;;;5113553;28;20065;-67
2022/12/11 07:24:13;;;;;;;57.10;22.97;;;1.80;82.50;;;;;;5113569;28;20038;-69
2022/12/11 07:26:39;;;;;;;57.13;21.80;;;1.80;82.50;;;;;;5113381;28;20118;-69
2022/12/11 07:29:04;;;;;;;60.73;22.10;;;1.80;82.50;;;;;;5096945;28;20048;-67
2022/12/11 07:31:30;;;;;;;48.43;20.27;;;1.80;82.60;;;;;;5113497;28;20390;-67
2022/12/11 07:34:01;;;;;;;50.00;20.43;;;1.90;82.70;;;;;;5096185;28;20040;-68
2022/12/11 07:36:28;;;;;;;55.60;20.97;;;1.80;82.50;;;;;;5113374;28;20046;-68
2022/12/11 07:38:53;;;;;;;52.43;22.00;;;1.90;82.60;;;;;;5095299;28;20043;-68
2022/12/11 07:41:20;;;;;;;56.70;22.30;;;1.90;82.60;;;;;;5114368;28;20538;-68
2022/12/11 07:43:46;;;;;;;53.77;21.83;;;1.90;82.60;;;;;;5095963;28;20043;-68
2022/12/11 07:46:15;;;;;;;58.63;21.53;;;1.90;82.50;;;;;;5096451;28;20363;-68
2022/12/11 07:48:43;;;;;;;54.13;22.20;;;1.90;82.50;;;;;;5112934;28;20039;-68
2022/12/11 07:51:10;;;;;;;56.63;20.50;;;1.90;82.40;;;;;;5106356;28;20119;-68
2022/12/11 07:53:36;;;;;;;63.20;21.85;;;1.90;82.40;;;;;;5112556;28;20270;-67
2022/12/11 07:56:02;;;;;;;61.37;23.23;;;1.90;82.40;;;;;;5113536;28;20506;-67
2022/12/11 07:58:28;;;;;;;55.00;21.20;;;1.90;82.30;;;;;;5113102;28;20070;-67
2022/12/11 08:00:54;;;;;;;56.27;21.60;;;1.90;82.40;;;;;;5113251;28;20364;-67
2022/12/11 08:03:19;;;;;;;57.40;21.33;;;1.90;82.40;;;;;;5095308;28;20045;-67
2022/12/11 08:05:49;;;;;;;66.43;24.10;;;1.90;82.40;;;;;;5112591;28;20035;-67
2022/12/11 08:08:15;;;;;;;61.03;23.93;;;1.90;82.40;;;;;;5112913;28;20064;-67
2022/12/11 08:10:42;;;;;;;57.53;22.57;;;1.90;82.70;;;;;;5112736;28;20035;-67
2022/12/11 08:13:07;;;;;;;55.20;21.27;;;1.90;82.30;;;;;;5112339;28;20043;-67
2022/12/11 08:15:34;;;;;;;57.30;22.33;;;1.90;82.20;;;;;;5112486;28;20105;-67
2022/12/11 08:17:59;;;;;;;63.17;23.37;;;1.90;82.30;;;;;;5112466;28;20487;-67
2022/12/11 08:20:25;;;;;;;62.00;26.00;;;1.90;82.30;;;;;;5112998;28;20038;-67
2022/12/11 08:22:51;;;;;;;65.90;23.27;;;1.90;82.30;;;;;;5112533;28;20479;-67
2022/12/11 08:25:16;;;;;;;58.93;22.43;;;1.90;82.20;;;;;;5112009;28;20475;-67
2022/12/11 08:27:42;;;;;;;63.07;22.23;;;1.90;82.20;;;;;;5112535;28;20086;-67
2022/12/11 08:30:09;;;;;;;61.87;23.27;;;1.90;82.20;;;;;;5094908;28;20036;-67
2022/12/11 08:32:34;;;;;;;58.57;22.17;;;1.80;82.20;;;;;;5112166;28;20483;-67
2022/12/11 08:35:00;;;;;;;60.13;23.33;;;1.90;82.30;;;;;;5095334;28;20077;-67
2022/12/11 08:37:26;;;;;;;60.87;22.40;;;1.80;82.30;;;;;;5112285;28;20038;-67
2022/12/11 08:39:52;;;;;;;64.17;24.37;;;1.80;82.40;;;;;;5095365;28;20468;-67
2022/12/11 08:42:18;;;;;;;62.20;23.00;;;1.90;82.40;;;;;;5112383;28;20134;-68
2022/12/11 08:44:43;;;;;;;57.77;23.23;;;1.80;82.40;;;;;;5095074;28;20483;-67
2022/12/11 08:47:09;;;;;;;54.53;20.67;;;1.80;82.40;;;;;;5112174;28;20075;-68
2022/12/11 08:49:35;;;;;;;59.20;22.17;;;2.00;82.50;;;;;;5112174;28;20050;-67
2022/12/11 08:52:04;;;;;;;59.73;21.67;;;1.80;82.50;;;;;;5111823;28;20035;-68
2022/12/11 08:54:30;;;;;;;58.33;22.00;;;1.80;82.50;;;;;;5111898;28;20118;-67
2022/12/11 08:56:56;;;;;;;61.83;22.30;;;2.50;82.90;;;;;;5112415;28;20114;-67
2022/12/11 08:59:22;;;;;;;60.53;22.03;;;1.80;82.50;;;;;;5110820;28;20043;-67
2022/12/11 09:01:48;;;;;;;54.17;21.30;;;1.80;82.50;;;;;;5111862;28;20130;-68
2022/12/11 09:04:13;;;;;;;57.77;22.60;;;1.80;82.50;;;;;;5094914;28;20039;-67
2022/12/11 09:06:39;;;;;;;66.07;24.23;;;1.80;82.60;;;;;;5111969;28;20039;-68
2022/12/11 09:09:05;;;;;;;62.13;23.23;;;1.80;82.70;;;;;;5111804;28;20051;-67
2022/12/11 09:11:33;;;;;;;58.53;22.43;;;1.80;82.60;;;;;;5094985;28;20044;-73
2022/12/11 09:14:00;;;;;;;63.00;23.33;;;1.80;82.70;;;;;;5094585;28;20047;-73
2022/12/11 09:16:26;;;;;;;63.77;23.27;;;1.80;82.70;;;;;;5094829;28;20039;-73
2022/12/11 09:18:54;;;;;;;63.93;22.93;;;1.80;82.70;;;;;;5111879;28;20060;-73
2022/12/11 09:21:24;;;;;;;57.77;22.10;;;1.80;82.70;;;;;;5112082;28;20075;-73
2022/12/11 09:23:55;;;;;;;59.90;23.90;;;1.80;82.80;;;;;;5111400;28;20547;-73
2022/12/11 09:26:21;;;;;;;60.90;23.40;;;1.80;82.90;;;;;;5111913;28;20038;-73
2022/12/11 09:28:47;;;;;;;60.40;23.60;;;1.80;82.80;;;;;;5111478;28;20483;-73
2022/12/11 09:31:23;;;;;;;60.97;23.50;;;1.80;82.80;;;;;;5112054;28;20044;-73
2022/12/11 09:33:50;;;;;;;58.40;22.77;;;1.80;82.80;;;;;;5111342;28;20397;-73
2022/12/11 09:36:16;;;;;;;59.53;23.63;;;1.90;82.80;;;;;;5112115;28;20106;-73
2022/12/11 09:38:42;;;;;;;54.93;22.30;;;1.90;82.70;;;;;;5112169;28;20066;-73
2022/12/11 09:41:20;;;;;;;66.97;24.30;;;1.80;83.00;;;;;;5094805;28;20046;-73
2022/12/11 09:44:06;;;;;;;63.97;22.63;;;1.70;82.60;;;;;;5111422;28;20118;-67
2022/12/11 09:46:33;;;;;;;49.97;21.87;;;1.80;82.70;;;;;;5111492;28;20054;-67
2022/12/11 09:49:01;;;;;;;59.07;22.83;;;1.80;82.70;;;;;;5094230;28;20074;-67
2022/12/11 09:51:45;;;;;;;65.30;23.27;;;1.80;82.90;;;;;;5111106;28;20042;-67
2022/12/11 09:54:13;;;;;;;56.10;21.30;;;1.80;83.00;;;;;;5103230;28;20035;-67
2022/12/11 09:56:45;;;;;;;61.72;22.20;;;1.80;83.00;;;;;;5094191;28;20035;-67
2022/12/11 09:59:43;;;;;;;54.03;21.90;;;1.80;83.10;;;;;;5111317;28;20425;-67
2022/12/11 10:02:33;;;;;;;61.13;23.93;;;1.80;83.30;;;;;;5094238;28;20035;-67
2022/12/11 10:05:02;;;;;;;52.50;21.17;;;1.80;83.20;;;;;;5110738;28;20040;-67
2022/12/11 10:07:39;;;;;;;55.40;22.23;;;1.80;83.10;;;;;;5111156;28;20093;-67
2022/12/11 10:10:05;;;;;;;56.47;22.03;;;1.80;83.10;;;;;;5106139;28;20028;-67
2022/12/11 10:12:38;;;;;;;61.83;24.10;;;1.80;83.10;;;;;;5114601;28;20040;-67
2022/12/11 10:15:42;;;;;;;53.07;21.07;;;1.90;83.20;;;;;;5112540;28;20526;-67
2022/12/11 10:18:20;;;;;;;54.43;21.50;;;1.90;83.20;;;;;;5085803;28;20039;-67
2022/12/11 10:20:47;;;;;;;59.00;24.33;;;1.90;83.20;;;;;;5114625;28;20070;-67
2022/12/11 10:23:35;;;;;;;55.00;21.73;;;1.90;83.10;;;;;;5114584;28;20432;-68
2022/12/11 10:26:28;;;;;;;54.10;22.20;;;2.00;83.20;;;;;;5114702;28;20048;-67
2022/12/11 10:28:58;;;;;;;55.23;22.20;;;1.90;83.20;;;;;;5114689;28;20044;-67
2022/12/11 10:31:37;;;;;;;55.20;21.37;;;2.00;83.20;;;;;;5098121;28;20106;-67
2022/12/11 10:34:07;;;;;;;52.33;21.83;;;2.00;83.20;;;;;;5114149;28;20075;-67
2022/12/11 10:36:38;;;;;;;54.30;22.87;;;2.00;83.20;;;;;;5114705;28;20032;-68
2022/12/11 10:39:16;;;;;;;55.70;21.73;;;2.00;83.20;;;;;;5114434;28;20043;-67
2022/12/11 10:41:44;;;;;;;51.13;20.97;;;2.10;83.20;;;;;;5114659;28;20031;-68
2022/12/11 10:44:16;;;;;;;55.92;22.45;;;2.00;83.10;;;;;;5114326;28;20047;-68
2022/12/11 10:46:42;;;;;;;57.20;22.13;;;2.10;83.20;;;;;;5114631;28;20044;-67
2022/12/11 10:49:21;;;;;;;54.78;22.10;;;2.10;83.10;;;;;;5114239;28;20047;-67
2022/12/11 10:51:46;;;;;;;53.97;21.93;;;2.10;83.10;;;;;;5097527;28;20101;-67
2022/12/11 10:54:41;;;;;;;50.17;21.40;;;2.10;83.00;;;;;;5114043;28;20499;-67
2022/12/11 10:57:09;;;;;;;55.73;24.83;;;2.10;83.10;;;;;;5097820;28;20051;-67
2022/12/11 10:59:47;;;;;;;50.27;20.47;;;2.20;83.10;;;;;;5114629;28;20303;-68
2022/12/11 11:02:34;;;;;;;51.97;21.77;;;2.10;83.00;;;;;;5114001;28;20035;-67
2022/12/11 11:05:14;;;;;;;53.50;22.03;;;2.20;83.00;;;;;;5114255;28;20075;-67
2022/12/11 11:07:40;;;;;;;49.83;20.70;;;2.20;83.00;;;;;;5097426;28;20039;-67
2022/12/11 11:10:08;;;;;;;56.42;22.42;;;2.20;82.90;;;;;;5113763;28;20521;-67
2022/12/11 11:12:38;;;;;;;52.10;20.92;;;2.20;82.90;;;;;;5113774;28;20044;-67
2022/12/11 11:15:17;;;;;;;51.93;21.80;;;2.20;82.90;;;;;;5119181;27;20051;-67
2022/12/11 11:17:53;;;;;;;52.80;21.93;;;2.20;82.90;;;;;;5108111;27;20400;-68
2022/12/11 11:20:24;;;;;;;55.58;23.38;;;2.20;82.90;;;;;;5114164;27;20063;-68
2022/12/11 11:22:56;;;;;;;58.17;23.67;;;2.20;82.80;;;;;;5123515;27;20051;-67
2022/12/11 11:25:25;;;;;;;49.45;20.90;;;2.20;82.70;;;;;;5118196;27;20490;-67
2022/12/11 11:28:15;;;;;;;49.65;21.40;;;2.30;82.80;;;;;;5114095;27;20035;-67
2022/12/11 11:30:52;;;;;;;44.22;20.05;;;2.30;82.80;;;;;;5119355;27;20148;-67
2022/12/11 11:33:21;;;;;;;50.08;21.73;;;2.30;82.70;;;;;;5128499;27;20165;-68
2022/12/11 11:35:56;;;;;;;56.65;22.20;;;2.30;82.80;;;;;;5097893;28;20039;-74
2022/12/11 11:38:45;;;;;;;44.58;20.00;;;2.30;82.90;;;;;;5109706;27;20490;-74
2022/12/11 11:41:45;;;;;;;46.33;20.95;;;2.30;82.90;;;;;;5123605;27;20502;-74
2022/12/11 11:44:15;;;;;;;48.58;20.90;;;2.40;83.00;;;;;;5116415;27;20082;-73
2022/12/11 11:46:46;;;;;;;49.60;21.55;;;2.40;82.90;;;;;;5118034;27;20093;-74
2022/12/11 11:49:11;;;;;;;45.22;20.88;;;2.40;83.00;;;;;;5117950;27;20039;-73
2022/12/11 11:51:44;;;;;;;42.42;20.33;;;2.40;82.90;;;;;;5122270;27;20122;-74
2022/12/11 11:54:36;;;;;;;48.50;22.63;;;2.60;83.00;;;;;;5103024;27;20436;-74
2022/12/11 11:57:23;;;;;;;49.83;20.75;;;2.50;83.00;;;;;;5091520;28;20035;-74
2022/12/11 11:59:57;;;;;;;48.13;20.85;;;2.50;82.90;;;;;;5127508;27;20037;-74
2022/12/11 12:02:22;;;;;;;47.88;21.33;;;2.60;82.90;;;;;;5127063;27;20117;-74
2022/12/11 12:04:50;;;;;;;39.50;19.52;;;2.60;82.80;;;;;;5119258;27;20122;-74
2022/12/11 12:07:31;;;;;;;50.35;22.10;;;2.60;82.80;;;;;;5126013;27;20440;-74
2022/12/11 12:10:13;;;;;;;42.60;19.98;;;2.60;82.80;;;;;;5118281;27;20046;-68
2022/12/11 12:12:53;;;;;;;40.72;20.95;;;2.70;82.80;;;;;;5133297;27;20390;-68
2022/12/11 12:15:42;;;;;;;37.97;19.17;;;2.70;82.80;;;;;;5114533;27;20043;-68
2022/12/11 12:18:30;;;;;;;42.00;20.65;;;2.70;82.80;;;;;;5126928;27;20042;-73
2022/12/11 12:20:55;;;;;;;39.42;20.85;;;2.70;82.70;;;;;;5099027;28;20566;-74
2022/12/11 12:24:01;;;;;;;38.15;20.92;;;2.80;82.60;;;;;;5113392;28;20118;-74
2022/12/11 12:26:31;;;;;;;37.10;20.88;;;2.80;82.60;;;;;;5057760;27;20122;-74
2022/12/11 12:29:22;;;;;;;36.00;19.58;;;2.90;82.50;;;;;;5117335;27;20084;-74
2022/12/11 12:32:00;;;;;;;35.05;18.73;;;2.90;82.40;;;;;;5120809;27;20035;-69
2022/12/11 12:34:28;;;;;;;35.70;18.35;;;2.90;82.30;;;;;;5114963;27;20127;-68
2022/12/11 12:37:25;;;;;;;36.00;19.48;;;2.90;82.20;;;;;;5112354;27;20071;-68
2022/12/11 12:39:59;;;;;;;39.92;21.23;;;3.00;82.20;;;;;;5116117;27;20543;-68
2022/12/11 12:42:43;;;;;;;34.03;19.50;;;3.00;82.00;;;;;;5094968;28;20156;-67
2022/12/11 12:45:15;;;;;;;37.03;19.95;;;3.10;81.80;;;;;;5093002;27;20040;-68
2022/12/11 12:47:43;;;;;;;34.90;19.60;;;3.10;81.60;;;;;;5093734;27;20035;-67
2022/12/11 12:50:21;;;;;;;37.10;21.02;;;3.10;81.10;;;;;;5100218;28;20048;-69
2022/12/11 12:52:49;;;;;;;37.60;20.08;;;3.00;80.80;;;;;;5090784;27;20069;-69
2022/12/11 12:55:23;;;;;;;37.83;22.65;;;3.10;80.60;;;;;;5101593;28;20421;-76
2022/12/11 12:57:56;;;;;;;39.58;22.08;;;3.10;80.40;;;;;;5100758;28;20043;-77
2022/12/11 13:00:29;;;;;;;40.47;19.90;;;3.10;80.20;;;;;;5098050;28;20040;-76
2022/12/11 13:02:55;;;;;;;36.05;20.80;;;3.10;80.10;;;;;;5102390;27;20877;-75